sensor_id;sensor_type;location;lat;lon;timestamp;pressure;altitude;pressure_sealevel;temperature;humidity
15568;BME280;7885;42.596;23.044;2023-05-01T00:00:15;92931.56;;;9.85;90.23
15568;BME280;7885;42.596;23.044;2023-05-01T00:02:42;92940.09;;;9.80;88.46
15568;BME280;7885;42.596;23.044;2023-05-01T00:05:09;92934.28;;;9.71;87.39
15568;BME280;7885;42.596;23.044;2023-05-01T00:07:36;92937.00;;;9.67;87.08
15568;BME280;7885;42.596;23.044;2023-05-01T00:10:03;92953.69;;;9.62;87.74
15568;BME280;7885;42.596;23.044;2023-05-01T00:12:30;92934.69;;;9.51;88.62
15568;BME280;7885;42.596;23.044;2023-05-01T00:14:57;92952.53;;;9.59;88.21
15568;BME280;7885;42.596;23.044;2023-05-01T00:17:25;92944.78;;;9.61;87.04
15568;BME280;7885;42.596;23.044;2023-05-01T00:19:52;92938.53;;;9.43;86.73
15568;BME280;7885;42.596;23.044;2023-05-01T00:22:19;92948.66;;;9.53;89.35
15568;BME280;7885;42.596;23.044;2023-05-01T00:24:46;92956.41;;;9.51;91.74
15568;BME280;7885;42.596;23.044;2023-05-01T00:27:14;92956.41;;;9.44;92.75
15568;BME280;7885;42.596;23.044;2023-05-01T00:29:41;92945.13;;;9.42;93.63
15568;BME280;7885;42.596;23.044;2023-05-01T00:32:08;92951.72;;;9.38;92.89
15568;BME280;7885;42.596;23.044;2023-05-01T00:34:36;92945.53;;;9.34;90.51
15568;BME280;7885;42.596;23.044;2023-05-01T00:37:03;92957.53;;;9.29;89.25
15568;BME280;7885;42.596;23.044;2023-05-01T00:39:29;92964.09;;;9.25;88.85
15568;BME280;7885;42.596;23.044;2023-05-01T00:41:56;92959.03;;;9.12;87.78
15568;BME280;7885;42.596;23.044;2023-05-01T00:44:23;92952.44;;;9.10;87.91
15568;BME280;7885;42.596;23.044;2023-05-01T00:46:50;92967.19;;;9.09;88.96
15568;BME280;7885;42.596;23.044;2023-05-01T00:49:17;92937.63;;;8.90;90.39
15568;BME280;7885;42.596;23.044;2023-05-01T00:51:47;92961.34;;;9.10;91.81
15568;BME280;7885;42.596;23.044;2023-05-01T00:54:15;92955.16;;;9.10;92.97
15568;BME280;7885;42.596;23.044;2023-05-01T00:56:42;92972.66;;;9.23;93.93
15568;BME280;7885;42.596;23.044;2023-05-01T00:59:09;92962.16;;;9.25;91.20
15568;BME280;7885;42.596;23.044;2023-05-01T01:01:36;92972.63;;;9.20;91.74
15568;BME280;7885;42.596;23.044;2023-05-01T01:04:03;92973.44;;;9.27;93.72
15568;BME280;7885;42.596;23.044;2023-05-01T01:06:35;92985.06;;;9.31;90.26
15568;BME280;7885;42.596;23.044;2023-05-01T01:09:16;92982.75;;;9.26;88.41
15568;BME280;7885;42.596;23.044;2023-05-01T01:11:54;92983.50;;;9.16;88.76
15568;BME280;7885;42.596;23.044;2023-05-01T01:14:27;92979.22;;;9.19;90.94
15568;BME280;7885;42.596;23.044;2023-05-01T01:17:02;92982.72;;;9.19;91.96
15568;BME280;7885;42.596;23.044;2023-05-01T01:20:10;92979.22;;;9.19;91.54
15568;BME280;7885;42.596;23.044;2023-05-01T01:22:42;92979.19;;;9.08;91.36
15568;BME280;7885;42.596;23.044;2023-05-01T01:25:37;92984.22;;;8.99;89.29
15568;BME280;7885;42.596;23.044;2023-05-01T01:28:22;92953.84;;;8.76;89.57
15568;BME280;7885;42.596;23.044;2023-05-01T01:31:08;92973.31;;;8.88;90.69
15568;BME280;7885;42.596;23.044;2023-05-01T01:33:54;92980.31;;;8.89;91.09
15568;BME280;7885;42.596;23.044;2023-05-01T01:36:36;92977.16;;;8.84;90.70
15568;BME280;7885;42.596;23.044;2023-05-01T01:39:09;92976.75;;;8.78;88.69
15568;BME280;7885;42.596;23.044;2023-05-01T01:41:38;92958.81;;;8.52;87.33
15568;BME280;7885;42.596;23.044;2023-05-01T01:44:08;92982.44;;;8.55;87.12
15568;BME280;7885;42.596;23.044;2023-05-01T01:46:39;92981.28;;;8.56;89.57
15568;BME280;7885;42.596;23.044;2023-05-01T01:49:12;92981.69;;;8.51;91.82
15568;BME280;7885;42.596;23.044;2023-05-01T01:51:41;92970.34;;;8.35;93.93
15568;BME280;7885;42.596;23.044;2023-05-01T01:54:10;92984.72;;;8.46;95.36
15568;BME280;7885;42.596;23.044;2023-05-01T01:56:40;92975.44;;;8.47;95.63
15568;BME280;7885;42.596;23.044;2023-05-01T01:59:08;92979.31;;;8.46;93.49
15568;BME280;7885;42.596;23.044;2023-05-01T02:01:38;92964.50;;;8.30;89.76
15568;BME280;7885;42.596;23.044;2023-05-01T02:04:08;92970.66;;;8.27;89.29
15568;BME280;7885;42.596;23.044;2023-05-01T02:06:37;92964.44;;;8.23;90.47
15568;BME280;7885;42.596;23.044;2023-05-01T02:09:05;92964.38;;;8.16;92.41
15568;BME280;7885;42.596;23.044;2023-05-01T02:11:34;92964.34;;;8.12;92.56
15568;BME280;7885;42.596;23.044;2023-05-01T02:14:03;92962.84;;;8.18;93.55
15568;BME280;7885;42.596;23.044;2023-05-01T02:16:32;92970.97;;;8.18;90.08
15568;BME280;7885;42.596;23.044;2023-05-01T02:19:01;92961.97;;;8.07;92.23
15568;BME280;7885;42.596;23.044;2023-05-01T02:21:32;92948.84;;;8.09;94.16
15568;BME280;7885;42.596;23.044;2023-05-01T02:24:00;92958.16;;;8.11;96.08
15568;BME280;7885;42.596;23.044;2023-05-01T02:26:28;92971.38;;;8.20;97.25
15568;BME280;7885;42.596;23.044;2023-05-01T02:28:56;92969.00;;;8.15;94.35
15568;BME280;7885;42.596;23.044;2023-05-01T02:31:23;92958.13;;;8.08;92.50
15568;BME280;7885;42.596;23.044;2023-05-01T02:33:50;92967.44;;;8.10;91.34
15568;BME280;7885;42.596;23.044;2023-05-01T02:36:17;92970.13;;;8.07;90.11
15568;BME280;7885;42.596;23.044;2023-05-01T02:38:45;92966.22;;;8.01;89.56
15568;BME280;7885;42.596;23.044;2023-05-01T02:41:15;92964.94;;;7.84;89.15
15568;BME280;7885;42.596;23.044;2023-05-01T02:43:44;92977.75;;;7.91;92.43
15568;BME280;7885;42.596;23.044;2023-05-01T02:46:15;92976.94;;;7.87;94.42
15568;BME280;7885;42.596;23.044;2023-05-01T02:48:43;92947.78;;;7.70;97.25
15568;BME280;7885;42.596;23.044;2023-05-01T02:51:11;92972.28;;;7.84;97.83
15568;BME280;7885;42.596;23.044;2023-05-01T02:53:40;92975.75;;;7.81;94.36
15568;BME280;7885;42.596;23.044;2023-05-01T02:56:09;92985.81;;;7.84;93.39
15568;BME280;7885;42.596;23.044;2023-05-01T02:58:37;92981.16;;;7.81;91.89
15568;BME280;7885;42.596;23.044;2023-05-01T03:01:03;92979.63;;;7.83;92.95
15568;BME280;7885;42.596;23.044;2023-05-01T03:03:31;92967.22;;;7.79;91.84
15568;BME280;7885;42.596;23.044;2023-05-01T03:05:58;92986.94;;;7.76;91.50
15568;BME280;7885;42.596;23.044;2023-05-01T03:08:24;92986.13;;;7.72;91.19
15568;BME280;7885;42.596;23.044;2023-05-01T03:10:51;92951.47;;;7.47;90.97
15568;BME280;7885;42.596;23.044;2023-05-01T03:13:19;92966.91;;;7.43;90.44
15568;BME280;7885;42.596;23.044;2023-05-01T03:15:46;92988.28;;;7.55;89.85
15568;BME280;7885;42.596;23.044;2023-05-01T03:18:13;92984.78;;;7.51;91.24
15568;BME280;7885;42.596;23.044;2023-05-01T03:20:40;92956.84;;;7.40;92.28
15568;BME280;7885;42.596;23.044;2023-05-01T03:23:06;92980.09;;;7.48;94.62
15568;BME280;7885;42.596;23.044;2023-05-01T03:25:33;92974.31;;;7.50;94.05
15568;BME280;7885;42.596;23.044;2023-05-01T03:28:01;92989.41;;;7.51;96.52
15568;BME280;7885;42.596;23.044;2023-05-01T03:30:32;92980.84;;;7.45;97.77
15568;BME280;7885;42.596;23.044;2023-05-01T03:32:59;92976.94;;;7.39;98.96
15568;BME280;7885;42.596;23.044;2023-05-01T03:35:25;92986.28;;;7.49;99.36
15568;BME280;7885;42.596;23.044;2023-05-01T03:37:52;92996.84;;;7.57;97.38
15568;BME280;7885;42.596;23.044;2023-05-01T03:40:19;93007.25;;;7.55;93.79
15568;BME280;7885;42.596;23.044;2023-05-01T03:42:46;92993.63;;;7.48;93.49
15568;BME280;7885;42.596;23.044;2023-05-01T03:45:12;92991.75;;;7.52;94.13
15568;BME280;7885;42.596;23.044;2023-05-01T03:47:41;92982.44;;;7.50;95.50
15568;BME280;7885;42.596;23.044;2023-05-01T03:50:08;92985.09;;;7.43;97.41
15568;BME280;7885;42.596;23.044;2023-05-01T03:52:35;92980.78;;;7.38;99.39
15568;BME280;7885;42.596;23.044;2023-05-01T03:55:02;92988.81;;;7.31;99.17
15568;BME280;7885;42.596;23.044;2023-05-01T03:57:29;92997.44;;;7.40;97.99
15568;BME280;7885;42.596;23.044;2023-05-01T03:59:55;92987.75;;;7.39;98.45
15568;BME280;7885;42.596;23.044;2023-05-01T04:02:23;93008.00;;;7.52;98.06
15568;BME280;7885;42.596;23.044;2023-05-01T04:04:51;92996.34;;;7.48;97.90
15568;BME280;7885;42.596;23.044;2023-05-01T04:07:18;93014.34;;;7.71;96.81
15568;BME280;7885;42.596;23.044;2023-05-01T04:09:45;93012.03;;;7.73;96.39
15568;BME280;7885;42.596;23.044;2023-05-01T04:12:12;93005.91;;;7.76;96.61
15568;BME280;7885;42.596;23.044;2023-05-01T04:14:39;92984.06;;;7.58;98.18
15568;BME280;7885;42.596;23.044;2023-05-01T04:17:07;93009.09;;;7.88;98.05
15568;BME280;7885;42.596;23.044;2023-05-01T04:19:34;93002.94;;;7.95;98.79
15568;BME280;7885;42.596;23.044;2023-05-01T04:22:03;93010.03;;;8.10;98.57
15568;BME280;7885;42.596;23.044;2023-05-01T04:24:30;93014.00;;;8.23;98.17
15568;BME280;7885;42.596;23.044;2023-05-01T04:26:57;93014.09;;;8.30;97.48
15568;BME280;7885;42.596;23.044;2023-05-01T04:29:24;93001.69;;;8.29;97.83
15568;BME280;7885;42.596;23.044;2023-05-01T04:31:51;93010.66;;;8.40;97.51
15568;BME280;7885;42.596;23.044;2023-05-01T04:34:18;93025.09;;;8.58;97.11
15568;BME280;7885;42.596;23.044;2023-05-01T04:36:44;93025.94;;;8.73;96.48
15568;BME280;7885;42.596;23.044;2023-05-01T04:39:13;93042.28;;;8.84;96.18
15568;BME280;7885;42.596;23.044;2023-05-01T04:41:40;93037.69;;;8.95;95.73
15568;BME280;7885;42.596;23.044;2023-05-01T04:44:06;93028.75;;;8.91;94.77
15568;BME280;7885;42.596;23.044;2023-05-01T04:46:33;93039.28;;;8.99;94.27
15568;BME280;7885;42.596;23.044;2023-05-01T04:49:00;93030.66;;;8.83;94.94
15568;BME280;7885;42.596;23.044;2023-05-01T04:51:27;93042.31;;;8.91;95.50
15568;BME280;7885;42.596;23.044;2023-05-01T04:53:54;93050.13;;;8.99;95.67
15568;BME280;7885;42.596;23.044;2023-05-01T04:56:23;93054.03;;;9.05;96.00
15568;BME280;7885;42.596;23.044;2023-05-01T04:58:50;93047.09;;;9.15;95.92
15568;BME280;7885;42.596;23.044;2023-05-01T05:01:17;93048.28;;;9.28;96.56
15568;BME280;7885;42.596;23.044;2023-05-01T05:03:44;93035.91;;;9.31;96.65
15568;BME280;7885;42.596;23.044;2023-05-01T05:06:10;93055.38;;;9.57;96.74
15568;BME280;7885;42.596;23.044;2023-05-01T05:08:37;93043.34;;;9.58;95.72
15568;BME280;7885;42.596;23.044;2023-05-01T05:11:04;93058.16;;;9.79;95.01
15568;BME280;7885;42.596;23.044;2023-05-01T05:13:33;93052.31;;;9.84;94.62
15568;BME280;7885;42.596;23.044;2023-05-01T05:15:59;93053.50;;;9.93;93.60
15568;BME280;7885;42.596;23.044;2023-05-01T05:18:26;93053.91;;;10.06;93.10
15568;BME280;7885;42.596;23.044;2023-05-01T05:20:53;93043.41;;;10.08;92.04
15568;BME280;7885;42.596;23.044;2023-05-01T05:23:20;93051.22;;;10.13;92.37
15568;BME280;7885;42.596;23.044;2023-05-01T05:25:46;93058.63;;;10.30;92.68
15568;BME280;7885;42.596;23.044;2023-05-01T05:28:13;93067.94;;;10.47;92.56
15568;BME280;7885;42.596;23.044;2023-05-01T05:30:42;93054.34;;;10.50;92.60
15568;BME280;7885;42.596;23.044;2023-05-01T05:33:08;93064.41;;;10.71;91.31
15568;BME280;7885;42.596;23.044;2023-05-01T05:35:35;93047.31;;;10.60;91.42
15568;BME280;7885;42.596;23.044;2023-05-01T05:38:02;93034.06;;;10.69;90.47
15568;BME280;7885;42.596;23.044;2023-05-01T05:40:29;93073.28;;;11.03;90.76
15568;BME280;7885;42.596;23.044;2023-05-01T05:42:55;93079.91;;;11.13;89.82
15568;BME280;7885;42.596;23.044;2023-05-01T05:45:22;93069.75;;;11.17;90.72
15568;BME280;7885;42.596;23.044;2023-05-01T05:47:50;93056.53;;;11.19;89.58
15568;BME280;7885;42.596;23.044;2023-05-01T05:50:17;93080.53;;;11.49;89.84
15568;BME280;7885;42.596;23.044;2023-05-01T05:52:44;93077.41;;;11.57;90.32
15568;BME280;7885;42.596;23.044;2023-05-01T05:55:11;93089.78;;;11.76;89.07
15568;BME280;7885;42.596;23.044;2023-05-01T05:57:37;93090.50;;;11.87;88.21
15568;BME280;7885;42.596;23.044;2023-05-01T06:00:05;93084.63;;;11.96;88.38
15568;BME280;7885;42.596;23.044;2023-05-01T06:02:33;93075.63;;;12.06;87.46
15568;BME280;7885;42.596;23.044;2023-05-01T06:05:01;93092.28;;;12.19;87.54
15568;BME280;7885;42.596;23.044;2023-05-01T06:07:28;93087.16;;;12.24;87.87
15568;BME280;7885;42.596;23.044;2023-05-01T06:09:55;93094.09;;;12.39;86.55
15568;BME280;7885;42.596;23.044;2023-05-01T06:12:27;93092.88;;;12.47;86.23
15568;BME280;7885;42.596;23.044;2023-05-01T06:14:54;93095.50;;;12.61;85.33
15568;BME280;7885;42.596;23.044;2023-05-01T06:17:30;93095.72;;;12.78;86.76
15568;BME280;7885;42.596;23.044;2023-05-01T06:19:57;93087.91;;;12.80;86.59
15568;BME280;7885;42.596;23.044;2023-05-01T06:22:25;93099.16;;;12.89;87.15
15568;BME280;7885;42.596;23.044;2023-05-01T06:24:52;93083.50;;;12.93;85.83
15568;BME280;7885;42.596;23.044;2023-05-01T06:27:19;93095.78;;;13.15;86.46
15568;BME280;7885;42.596;23.044;2023-05-01T06:29:45;93067.66;;;13.18;87.28
15568;BME280;7885;42.596;23.044;2023-05-01T06:32:12;93093.13;;;13.45;85.97
15568;BME280;7885;42.596;23.044;2023-05-01T06:34:39;93096.09;;;13.61;84.97
15568;BME280;7885;42.596;23.044;2023-05-01T06:37:05;93077.66;;;13.65;85.42
15568;BME280;7885;42.596;23.044;2023-05-01T06:39:34;93094.66;;;13.80;83.92
15568;BME280;7885;42.596;23.044;2023-05-01T06:42:01;93083.28;;;13.85;83.87
15568;BME280;7885;42.596;23.044;2023-05-01T06:44:27;93090.53;;;13.99;83.25
15568;BME280;7885;42.596;23.044;2023-05-01T06:46:54;93098.16;;;14.11;83.06
15568;BME280;7885;42.596;23.044;2023-05-01T06:49:22;93085.22;;;14.15;81.52
15568;BME280;7885;42.596;23.044;2023-05-01T06:51:49;93090.94;;;14.24;82.67
15568;BME280;7885;42.596;23.044;2023-05-01T06:54:16;93089.66;;;14.32;81.52
15568;BME280;7885;42.596;23.044;2023-05-01T06:56:44;93109.78;;;14.49;80.19
15568;BME280;7885;42.596;23.044;2023-05-01T06:59:11;93085.56;;;14.47;80.24
15568;BME280;7885;42.596;23.044;2023-05-01T07:01:38;93090.09;;;14.57;79.06
15568;BME280;7885;42.596;23.044;2023-05-01T07:04:05;93097.00;;;14.65;79.61
15568;BME280;7885;42.596;23.044;2023-05-01T07:06:31;93092.00;;;14.84;78.25
15568;BME280;7885;42.596;23.044;2023-05-01T07:08:59;93099.16;;;15.01;77.85
15568;BME280;7885;42.596;23.044;2023-05-01T07:11:26;93109.94;;;15.11;77.25
15568;BME280;7885;42.596;23.044;2023-05-01T07:13:54;93110.88;;;15.25;77.02
15568;BME280;7885;42.596;23.044;2023-05-01T07:16:21;93116.13;;;15.39;75.11
15568;BME280;7885;42.596;23.044;2023-05-01T07:18:48;93115.97;;;15.49;73.57
15568;BME280;7885;42.596;23.044;2023-05-01T07:21:14;93101.78;;;15.54;72.11
15568;BME280;7885;42.596;23.044;2023-05-01T07:23:41;93117.88;;;15.72;71.83
15568;BME280;7885;42.596;23.044;2023-05-01T07:26:08;93089.88;;;15.61;71.92
15568;BME280;7885;42.596;23.044;2023-05-01T07:28:35;93113.59;;;15.91;73.26
15568;BME280;7885;42.596;23.044;2023-05-01T07:31:03;93121.88;;;16.07;72.83
15568;BME280;7885;42.596;23.044;2023-05-01T07:33:30;93116.09;;;16.21;72.90
15568;BME280;7885;42.596;23.044;2023-05-01T07:35:57;93120.34;;;16.42;72.25
15568;BME280;7885;42.596;23.044;2023-05-01T07:38:24;93109.19;;;16.49;68.21
15568;BME280;7885;42.596;23.044;2023-05-01T07:40:51;93113.78;;;16.55;71.31
15568;BME280;7885;42.596;23.044;2023-05-01T07:43:18;93107.97;;;16.70;71.28
15568;BME280;7885;42.596;23.044;2023-05-01T07:45:53;93123.97;;;16.91;66.48
15568;BME280;7885;42.596;23.044;2023-05-01T07:48:23;93110.06;;;16.98;65.04
15568;BME280;7885;42.596;23.044;2023-05-01T07:50:49;93105.25;;;16.86;66.04
15568;BME280;7885;42.596;23.044;2023-05-01T07:53:16;93120.38;;;17.10;66.54
15568;BME280;7885;42.596;23.044;2023-05-01T07:55:43;93109.63;;;17.15;65.62
15568;BME280;7885;42.596;23.044;2023-05-01T07:58:10;93109.00;;;17.40;64.31
15568;BME280;7885;42.596;23.044;2023-05-01T08:00:36;93116.63;;;17.65;62.31
15568;BME280;7885;42.596;23.044;2023-05-01T08:03:03;93095.03;;;17.63;60.48
15568;BME280;7885;42.596;23.044;2023-05-01T08:05:32;93105.13;;;17.83;60.98
15568;BME280;7885;42.596;23.044;2023-05-01T08:07:58;93107.94;;;17.95;59.37
15568;BME280;7885;42.596;23.044;2023-05-01T08:10:25;93110.03;;;18.04;57.77
15568;BME280;7885;42.596;23.044;2023-05-01T08:12:53;93110.81;;;18.17;58.68
15568;BME280;7885;42.596;23.044;2023-05-01T08:15:19;93118.38;;;18.42;57.22
15568;BME280;7885;42.596;23.044;2023-05-01T08:17:47;93109.78;;;18.40;59.97
15568;BME280;7885;42.596;23.044;2023-05-01T08:20:15;93107.25;;;18.45;59.65
15568;BME280;7885;42.596;23.044;2023-05-01T08:22:43;93113.13;;;18.60;57.71
15568;BME280;7885;42.596;23.044;2023-05-01T08:25:10;93110.81;;;18.84;58.38
15568;BME280;7885;42.596;23.044;2023-05-01T08:27:37;93101.34;;;18.72;57.52
15568;BME280;7885;42.596;23.044;2023-05-01T08:30:05;93106.63;;;18.92;57.54
15568;BME280;7885;42.596;23.044;2023-05-01T08:32:32;93103.28;;;19.22;57.72
15568;BME280;7885;42.596;23.044;2023-05-01T08:34:59;93105.13;;;19.50;57.18
15568;BME280;7885;42.596;23.044;2023-05-01T08:37:26;93109.09;;;19.84;56.37
15568;BME280;7885;42.596;23.044;2023-05-01T08:39:54;93108.59;;;19.98;56.72
15568;BME280;7885;42.596;23.044;2023-05-01T08:42:21;93106.00;;;20.03;55.33
15568;BME280;7885;42.596;23.044;2023-05-01T08:44:48;93095.22;;;20.18;55.74
15568;BME280;7885;42.596;23.044;2023-05-01T08:47:17;93086.22;;;20.48;56.53
15568;BME280;7885;42.596;23.044;2023-05-01T08:49:44;93111.69;;;21.05;52.97
15568;BME280;7885;42.596;23.044;2023-05-01T08:52:13;93100.44;;;21.48;49.88
15568;BME280;7885;42.596;23.044;2023-05-01T08:54:43;93084.72;;;21.27;49.28
15568;BME280;7885;42.596;23.044;2023-05-01T08:57:12;93094.31;;;21.72;49.37
15568;BME280;7885;42.596;23.044;2023-05-01T08:59:39;93081.25;;;22.27;48.25
15568;BME280;7885;42.596;23.044;2023-05-01T09:02:08;93081.28;;;22.69;48.25
15568;BME280;7885;42.596;23.044;2023-05-01T09:04:36;93096.00;;;23.02;45.89
15568;BME280;7885;42.596;23.044;2023-05-01T09:07:04;93083.41;;;22.83;45.66
15568;BME280;7885;42.596;23.044;2023-05-01T09:09:31;93075.47;;;22.48;45.62
15568;BME280;7885;42.596;23.044;2023-05-01T09:12:00;93070.63;;;22.16;45.65
15568;BME280;7885;42.596;23.044;2023-05-01T09:14:32;93079.53;;;22.29;44.58
15568;BME280;7885;42.596;23.044;2023-05-01T09:16:59;93080.78;;;22.10;46.10
15568;BME280;7885;42.596;23.044;2023-05-01T09:19:26;93085.31;;;22.58;45.81
15568;BME280;7885;42.596;23.044;2023-05-01T09:21:53;93091.19;;;23.35;44.60
15568;BME280;7885;42.596;23.044;2023-05-01T09:24:21;93082.19;;;23.49;44.88
15568;BME280;7885;42.596;23.044;2023-05-01T09:26:49;93068.31;;;23.49;43.23
15568;BME280;7885;42.596;23.044;2023-05-01T09:32:15;93077.91;;;22.64;42.25
15568;BME280;7885;42.596;23.044;2023-05-01T09:34:42;93073.38;;;22.25;43.70
15568;BME280;7885;42.596;23.044;2023-05-01T09:37:11;93072.31;;;22.23;42.56
15568;BME280;7885;42.596;23.044;2023-05-01T09:39:39;93075.59;;;22.63;43.60
15568;BME280;7885;42.596;23.044;2023-05-01T09:42:06;93051.66;;;22.84;42.13
15568;BME280;7885;42.596;23.044;2023-05-01T09:44:40;93072.13;;;23.52;41.92
15568;BME280;7885;42.596;23.044;2023-05-01T09:47:07;93074.53;;;23.83;41.17
15568;BME280;7885;42.596;23.044;2023-05-01T09:49:45;93071.78;;;24.21;38.38
15568;BME280;7885;42.596;23.044;2023-05-01T09:52:14;93073.66;;;24.53;39.05
15568;BME280;7885;42.596;23.044;2023-05-01T09:54:42;93068.91;;;24.45;36.79
15568;BME280;7885;42.596;23.044;2023-05-01T09:57:09;93067.38;;;23.91;36.42
15568;BME280;7885;42.596;23.044;2023-05-01T09:59:35;93075.44;;;23.89;38.03
15568;BME280;7885;42.596;23.044;2023-05-01T10:02:03;93067.59;;;23.63;37.24
15568;BME280;7885;42.596;23.044;2023-05-01T10:04:30;93067.03;;;23.27;38.71
15568;BME280;7885;42.596;23.044;2023-05-01T10:07:00;93059.94;;;22.93;38.89
15568;BME280;7885;42.596;23.044;2023-05-01T10:09:36;93066.84;;;22.97;39.93
15568;BME280;7885;42.596;23.044;2023-05-01T10:12:03;93051.50;;;23.20;38.61
15568;BME280;7885;42.596;23.044;2023-05-01T10:14:30;93052.06;;;23.57;38.34
15568;BME280;7885;42.596;23.044;2023-05-01T10:17:16;93047.69;;;23.80;37.03
15568;BME280;7885;42.596;23.044;2023-05-01T10:19:44;93056.34;;;24.20;36.42
15568;BME280;7885;42.596;23.044;2023-05-01T10:22:12;93042.25;;;24.38;36.40
15568;BME280;7885;42.596;23.044;2023-05-01T10:24:39;93043.03;;;24.83;35.23
15568;BME280;7885;42.596;23.044;2023-05-01T10:27:06;93054.34;;;24.94;35.50
15568;BME280;7885;42.596;23.044;2023-05-01T10:29:34;93045.13;;;25.02;34.28
15568;BME280;7885;42.596;23.044;2023-05-01T10:32:03;93038.88;;;24.93;33.71
15568;BME280;7885;42.596;23.044;2023-05-01T10:34:34;93049.25;;;25.27;34.56
15568;BME280;7885;42.596;23.044;2023-05-01T10:37:08;93045.06;;;25.17;34.30
15568;BME280;7885;42.596;23.044;2023-05-01T10:39:38;93046.34;;;25.16;32.90
15568;BME280;7885;42.596;23.044;2023-05-01T10:42:06;93046.88;;;24.27;33.42
15568;BME280;7885;42.596;23.044;2023-05-01T10:44:35;93049.09;;;23.60;36.58
15568;BME280;7885;42.596;23.044;2023-05-01T10:50:08;93040.88;;;22.86;36.89
15568;BME280;7885;42.596;23.044;2023-05-01T10:55:39;93045.88;;;22.54;37.00
15568;BME280;7885;42.596;23.044;2023-05-01T10:58:07;93044.63;;;22.64;38.08
15568;BME280;7885;42.596;23.044;2023-05-01T11:00:34;93030.75;;;22.55;36.03
15568;BME280;7885;42.596;23.044;2023-05-01T11:03:35;93047.84;;;22.72;36.65
15568;BME280;7885;42.596;23.044;2023-05-01T11:06:04;93036.28;;;22.74;37.12
15568;BME280;7885;42.596;23.044;2023-05-01T11:08:32;93031.41;;;22.41;35.73
15568;BME280;7885;42.596;23.044;2023-05-01T11:14:01;93038.59;;;23.08;39.47
15568;BME280;7885;42.596;23.044;2023-05-01T11:16:41;93029.72;;;23.19;38.40
15568;BME280;7885;42.596;23.044;2023-05-01T11:19:43;93035.53;;;23.06;38.16
15568;BME280;7885;42.596;23.044;2023-05-01T11:21:58;93009.22;;;22.41;39.58
15568;BME280;7885;42.596;23.044;2023-05-01T11:24:35;93033.28;;;22.35;40.79
15568;BME280;7885;42.596;23.044;2023-05-01T11:27:02;93038.59;;;22.15;40.89
15568;BME280;7885;42.596;23.044;2023-05-01T11:29:31;93040.28;;;22.12;41.77
15568;BME280;7885;42.596;23.044;2023-05-01T11:31:58;93035.53;;;21.86;41.93
15568;BME280;7885;42.596;23.044;2023-05-01T11:34:25;93030.13;;;21.73;39.67
15568;BME280;7885;42.596;23.044;2023-05-01T11:36:52;93033.50;;;21.50;37.59
15568;BME280;7885;42.596;23.044;2023-05-01T11:39:19;93030.44;;;21.30;38.89
15568;BME280;7885;42.596;23.044;2023-05-01T11:41:46;93040.25;;;21.31;39.65
15568;BME280;7885;42.596;23.044;2023-05-01T11:44:15;93039.78;;;21.23;38.83
15568;BME280;7885;42.596;23.044;2023-05-01T11:46:43;93013.59;;;21.06;39.73
15568;BME280;7885;42.596;23.044;2023-05-01T11:49:10;93037.31;;;21.25;40.07
15568;BME280;7885;42.596;23.044;2023-05-01T11:51:37;93043.50;;;21.29;40.13
15568;BME280;7885;42.596;23.044;2023-05-01T11:54:05;93036.50;;;21.06;40.30
15568;BME280;7885;42.596;23.044;2023-05-01T11:56:33;93042.38;;;21.17;40.78
15568;BME280;7885;42.596;23.044;2023-05-01T11:59:08;93036.72;;;21.39;38.61
15568;BME280;7885;42.596;23.044;2023-05-01T12:01:36;93029.19;;;21.31;39.33
15568;BME280;7885;42.596;23.044;2023-05-01T12:04:06;93009.88;;;20.91;41.17
15568;BME280;7885;42.596;23.044;2023-05-01T12:06:37;93038.53;;;20.35;39.28
15568;BME280;7885;42.596;23.044;2023-05-01T12:09:09;93035.16;;;20.09;41.23
15568;BME280;7885;42.596;23.044;2023-05-01T12:11:37;93045.44;;;20.09;40.99
15568;BME280;7885;42.596;23.044;2023-05-01T12:14:04;93029.28;;;20.07;40.12
15568;BME280;7885;42.596;23.044;2023-05-01T12:16:31;93028.78;;;20.00;39.45
15568;BME280;7885;42.596;23.044;2023-05-01T12:18:58;93038.66;;;20.32;40.80
15568;BME280;7885;42.596;23.044;2023-05-01T12:21:26;93016.94;;;20.92;39.12
15568;BME280;7885;42.596;23.044;2023-05-01T12:23:53;93023.97;;;21.42;37.67
15568;BME280;7885;42.596;23.044;2023-05-01T12:26:23;93025.38;;;21.64;36.06
15568;BME280;7885;42.596;23.044;2023-05-01T12:28:54;92998.56;;;21.98;35.08
15568;BME280;7885;42.596;23.044;2023-05-01T12:31:21;93018.16;;;22.54;35.40
15568;BME280;7885;42.596;23.044;2023-05-01T12:33:52;93017.31;;;22.72;34.86
15568;BME280;7885;42.596;23.044;2023-05-01T12:36:21;93006.38;;;23.01;38.54
15568;BME280;7885;42.596;23.044;2023-05-01T12:38:56;92997.69;;;22.85;38.15
15568;BME280;7885;42.596;23.044;2023-05-01T12:41:46;93026.16;;;22.52;40.23
15568;BME280;7885;42.596;23.044;2023-05-01T12:44:18;93013.13;;;22.35;40.59
15568;BME280;7885;42.596;23.044;2023-05-01T12:46:51;93023.94;;;22.14;40.88
15568;BME280;7885;42.596;23.044;2023-05-01T12:49:19;93007.50;;;21.93;41.17
15568;BME280;7885;42.596;23.044;2023-05-01T12:51:46;93009.19;;;21.63;41.35
15568;BME280;7885;42.596;23.044;2023-05-01T12:54:19;93017.06;;;21.64;41.74
15568;BME280;7885;42.596;23.044;2023-05-01T12:56:46;93008.75;;;21.37;41.68
15568;BME280;7885;42.596;23.044;2023-05-01T12:59:19;93025.47;;;21.15;41.19
15568;BME280;7885;42.596;23.044;2023-05-01T13:01:47;93015.69;;;20.93;42.12
15568;BME280;7885;42.596;23.044;2023-05-01T13:04:19;93026.28;;;20.45;41.36
15568;BME280;7885;42.596;23.044;2023-05-01T13:06:46;93023.00;;;20.07;41.97
15568;BME280;7885;42.596;23.044;2023-05-01T13:09:13;93028.66;;;20.03;42.65
15568;BME280;7885;42.596;23.044;2023-05-01T13:11:55;93029.19;;;19.89;43.88
15568;BME280;7885;42.596;23.044;2023-05-01T13:14:22;93030.34;;;19.79;43.26
15568;BME280;7885;42.596;23.044;2023-05-01T13:16:50;93028.16;;;19.74;42.60
15568;BME280;7885;42.596;23.044;2023-05-01T13:19:24;93047.81;;;19.54;43.81
15568;BME280;7885;42.596;23.044;2023-05-01T13:21:53;93055.75;;;19.52;46.38
15568;BME280;7885;42.596;23.044;2023-05-01T13:24:21;93053.19;;;19.11;49.94